Sea Cloud — 9HOM2 — position and weather

sailwx.info

Track history (hours):
 
Tides and Currents Weather Stations Pressure Air Temp Water Temp Dewpoint Dewpoint Depression Visibility Wind Speed Wind Dir Waves Ship Positions

Sea Cloud

Ship's website: http://www.seacloud.com/en/the-ships/sea-cloud.html

Last reported at 2018-Nov-10 16:38 UTC. Time now 2018-Nov-18 16:24 UTC.
Position N 28°41' W 013°40'.

Length 110 m; draft 5.2 m.

Type: Ship. MMSI: 256084000.

Date/timePositionNaut miles runAvg speedWind from/ knotsBaromVisibWave heightAir tempDewpointWater temp
2018-Nov-10 16:38N 28°41' W 013°40'1 6.0
2018-Nov-10 16:31N 28°42' W 013°39'3 5.6
2018-Nov-10 16:00N 28°44' W 013°38'5 6.0
2018-Nov-10 15:07N 28°49' W 013°36'1 6.3
2018-Nov-10 14:58N 28°50' W 013°35'3 6.2
2018-Nov-10 14:31N 28°53' W 013°34'3 7.2
2018-Nov-10 14:02N 28°56' W 013°33'2 4.4
2018-Nov-10 13:32N 28°58' W 013°32'0 0.0
2018-Nov-10 12:59N 28°58' W 013°32'0 0.0
2018-Nov-10 11:53N 28°58' W 013°32'0 0.0
2018-Nov-10 11:29N 28°58' W 013°32'0 0.0
2018-Nov-10 10:59N 28°58' W 013°32'0 0.0
2018-Nov-10 10:29N 28°58' W 013°32'0 0.0
2018-Nov-10 09:47N 28°58' W 013°32'0 0.0
2018-Nov-10 09:17N 28°58' W 013°32'0 0.0
2018-Nov-10 08:59N 28°58' W 013°32'0 0.0
2018-Nov-10 08:23N 28°58' W 013°32'0 0.0
2018-Nov-10 07:59N 28°58' W 013°32'1 1.6
2018-Nov-10 07:32N 28°57' W 013°32'3 6.6
2018-Nov-10 07:02N 28°55' W 013°34'2 3.2
2018-Nov-10 06:29N 28°53' W 013°35'1 2.3
2018-Nov-10 05:59N 28°53' W 013°34'1 2.9
2018-Nov-10 05:32N 28°53' W 013°32'2 3.4
2018-Nov-10 05:02N 28°54' W 013°30'2 4.2
2018-Nov-10 04:30N 28°55' W 013°28'2 4.8
2018-Nov-10 04:01N 28°56' W 013°26'2 4.9
2018-Nov-10 03:32N 28°58' W 013°24'2 4.7
2018-Nov-10 03:02N 28°59' W 013°22'3 4.9
2018-Nov-10 02:31N 29°00' W 013°19'3 5.0
2018-Nov-10 02:00N 29°01' W 013°17'2 4.9
2018-Nov-10 01:31N 29°03' W 013°14'3 4.9
2018-Nov-10 00:55N 29°04' W 013°12'3 5.0
2018-Nov-10 00:25N 29°06' W 013°09'  
2018-Nov-06 00:11N 36°32' W 006°22'5 6.8
2018-Nov-05 23:31N 36°33' W 006°17'1 1.0
2018-Nov-05 22:22N 36°32' W 006°17'0 0.0
2018-Nov-05 20:57N 36°32' W 006°17'0 0.0
2018-Nov-05 20:29N 36°32' W 006°17'0 0.0
2018-Nov-05 20:02N 36°32' W 006°17'0 0.2
2018-Nov-05 20:00N 36°32' W 006°17'0 0.0
2018-Nov-05 19:29N 36°32' W 006°18'0 0.0
2018-Nov-05 19:03N 36°32' W 006°17'0 0.0
2018-Nov-05 18:42N 36°32' W 006°18'0 0.0
2018-Nov-05 18:18N 36°32' W 006°18'0 0.0
2018-Nov-05 18:03N 36°32' W 006°17'0 0.2
2018-Nov-05 18:00N 36°32' W 006°17'0 0.0
2018-Nov-05 17:23N 36°32' W 006°18'0 0.0
2018-Nov-05 15:41N 36°32' W 006°18'0 0.0
2018-Nov-05 15:02N 36°32' W 006°18'0 0.1
2018-Nov-05 14:56N 36°32' W 006°18'0 0.0
2018-Nov-05 14:26N 36°32' W 006°17'0 0.0
2018-Nov-05 14:03N 36°32' W 006°18'0 0.0
2018-Nov-05 13:29N 36°32' W 006°18'0 0.0
2018-Nov-05 13:03N 36°32' W 006°18'0 0.1
2018-Nov-05 12:59N 36°32' W 006°17'0 0.0
2018-Nov-05 12:08N 36°32' W 006°18'0 0.0
2018-Nov-05 11:47N 36°32' W 006°18'0 0.0
2018-Nov-05 11:29N 36°32' W 006°17'0 0.0
2018-Nov-05 11:02N 36°32' W 006°18'0 0.1
2018-Nov-05 10:57N 36°32' W 006°18'1 1.3
2018-Nov-05 10:24N 36°32' W 006°17'2 5.0
2018-Nov-05 10:03N 36°33' W 006°18'0 6.0
2018-Nov-05 10:00N 36°34' W 006°19'3 5.3
2018-Nov-05 09:30N 36°33' W 006°22'  
2018-Nov-02 11:05N 37°14' W 000°49'9 4.0
2018-Nov-02 08:51N 37°23' W 000°51'1 2.1
2018-Nov-02 08:14N 37°24' W 000°52'2 4.9
2018-Nov-02 07:54N 37°26' W 000°51'2 6.0
2018-Nov-02 07:30N 37°26' W 000°48'3 6.5
2018-Nov-02 07:03N 37°27' W 000°44'0 6.4
2018-Nov-02 07:00N 37°27' W 000°44'9 7.3
2018-Nov-02 05:45N 37°29' W 000°33'2 9.4
2018-Nov-02 05:30N 37°30' W 000°30'4 9.5
2018-Nov-02 05:02N 37°32' W 000°25'0 9.4
2018-Nov-02 05:00N 37°32' W 000°25'6 9.3
2018-Nov-02 04:21N 37°34' W 000°18'115 7.6
2018-Nov-01 13:18N 38°50' E 001°33'2 7.3
2018-Nov-01 13:03N 38°51' E 001°32'0 5.7
2018-Nov-01 12:59N 38°51' E 001°31'2 3.9
2018-Nov-01 12:30N 38°53' E 001°30'2 3.7
2018-Nov-01 12:02N 38°54' E 001°28'0 5.5
2018-Nov-01 12:01N 38°54' E 001°28'1 2.3
2018-Nov-01 11:28N 38°55' E 001°26'0 0.0
2018-Nov-01 11:01N 38°55' E 001°26'0 0.0
2018-Nov-01 10:59N 38°55' E 001°26'0 0.0
2018-Nov-01 10:29N 38°55' E 001°26'0 0.0
2018-Nov-01 10:01N 38°55' E 001°26'0 0.0
2018-Nov-01 09:55N 38°55' E 001°26'0 0.0
2018-Nov-01 09:29N 38°55' E 001°26'0 0.0
2018-Nov-01 09:02N 38°55' E 001°26'0 0.1
2018-Nov-01 08:59N 38°55' E 001°26'0 0.0
2018-Nov-01 08:29N 38°55' E 001°26'0 0.0
2018-Nov-01 08:02N 38°55' E 001°26'0 0.0
2018-Nov-01 07:59N 38°55' E 001°26'0 0.0
2018-Nov-01 07:29N 38°55' E 001°26'0 0.0
2018-Nov-01 07:02N 38°55' E 001°26'0 0.0
2018-Nov-01 06:59N 38°55' E 001°26'0 0.1
2018-Nov-01 06:27N 38°55' E 001°27'1 3.2
2018-Nov-01 06:04N 38°54' E 001°28'0 6.1
2018-Nov-01 06:00N 38°54' E 001°28'4 7.1
2018-Nov-01 05:30N 38°55' E 001°33'3 6.7
2018-Nov-01 05:02N 38°56' E 001°36'1 7.5
2018-Nov-01 04:56N 38°56' E 001°37'  
Track history (hours):
 
Tides and Currents Weather Stations Pressure Air Temp Water Temp Dewpoint Dewpoint Depression Visibility Wind Speed Wind Dir Waves Ship Positions

Sea Cloud

Ship's website: http://www.seacloud.com/en/the-ships/sea-cloud.html

Last reported at 2018-Nov-10 16:38 UTC. Time now 2018-Nov-18 16:24 UTC.
Position N 28°41' W 013°40'.

Length 110 m; draft 5.2 m.

Type: Ship. MMSI: 256084000.

Date/timePositionNaut miles runAvg speedWind from/ knotsBaromVisibWave heightAir tempDewpointWater temp
2018-Nov-10 16:38N 28°41' W 013°40'1 6.0
2018-Nov-10 16:31N 28°42' W 013°39'3 5.6
2018-Nov-10 16:00N 28°44' W 013°38'5 6.0
2018-Nov-10 15:07N 28°49' W 013°36'1 6.3
2018-Nov-10 14:58N 28°50' W 013°35'3 6.2
2018-Nov-10 14:31N 28°53' W 013°34'3 7.2
2018-Nov-10 14:02N 28°56' W 013°33'2 4.4
2018-Nov-10 13:32N 28°58' W 013°32'0 0.0
2018-Nov-10 12:59N 28°58' W 013°32'0 0.0
2018-Nov-10 11:53N 28°58' W 013°32'0 0.0
2018-Nov-10 11:29N 28°58' W 013°32'0 0.0
2018-Nov-10 10:59N 28°58' W 013°32'0 0.0
2018-Nov-10 10:29N 28°58' W 013°32'0 0.0
2018-Nov-10 09:47N 28°58' W 013°32'0 0.0
2018-Nov-10 09:17N 28°58' W 013°32'0 0.0
2018-Nov-10 08:59N 28°58' W 013°32'0 0.0
2018-Nov-10 08:23N 28°58' W 013°32'0 0.0
2018-Nov-10 07:59N 28°58' W 013°32'1 1.6
2018-Nov-10 07:32N 28°57' W 013°32'3 6.6
2018-Nov-10 07:02N 28°55' W 013°34'2 3.2
2018-Nov-10 06:29N 28°53' W 013°35'1 2.3
2018-Nov-10 05:59N 28°53' W 013°34'1 2.9
2018-Nov-10 05:32N 28°53' W 013°32'2 3.4
2018-Nov-10 05:02N 28°54' W 013°30'2 4.2
2018-Nov-10 04:30N 28°55' W 013°28'2 4.8
2018-Nov-10 04:01N 28°56' W 013°26'2 4.9
2018-Nov-10 03:32N 28°58' W 013°24'2 4.7
2018-Nov-10 03:02N 28°59' W 013°22'3 4.9
2018-Nov-10 02:31N 29°00' W 013°19'3 5.0
2018-Nov-10 02:00N 29°01' W 013°17'2 4.9
2018-Nov-10 01:31N 29°03' W 013°14'3 4.9
2018-Nov-10 00:55N 29°04' W 013°12'3 5.0
2018-Nov-10 00:25N 29°06' W 013°09'  
2018-Nov-06 00:11N 36°32' W 006°22'5 6.8
2018-Nov-05 23:31N 36°33' W 006°17'1 1.0
2018-Nov-05 22:22N 36°32' W 006°17'0 0.0
2018-Nov-05 20:57N 36°32' W 006°17'0 0.0
2018-Nov-05 20:29N 36°32' W 006°17'0 0.0
2018-Nov-05 20:02N 36°32' W 006°17'0 0.2
2018-Nov-05 20:00N 36°32' W 006°17'0 0.0
2018-Nov-05 19:29N 36°32' W 006°18'0 0.0
2018-Nov-05 19:03N 36°32' W 006°17'0 0.0
2018-Nov-05 18:42N 36°32' W 006°18'0 0.0
2018-Nov-05 18:18N 36°32' W 006°18'0 0.0
2018-Nov-05 18:03N 36°32' W 006°17'0 0.2
2018-Nov-05 18:00N 36°32' W 006°17'0 0.0
2018-Nov-05 17:23N 36°32' W 006°18'0 0.0
2018-Nov-05 15:41N 36°32' W 006°18'0 0.0
2018-Nov-05 15:02N 36°32' W 006°18'0 0.1
2018-Nov-05 14:56N 36°32' W 006°18'0 0.0
2018-Nov-05 14:26N 36°32' W 006°17'0 0.0
2018-Nov-05 14:03N 36°32' W 006°18'0 0.0
2018-Nov-05 13:29N 36°32' W 006°18'0 0.0
2018-Nov-05 13:03N 36°32' W 006°18'0 0.1
2018-Nov-05 12:59N 36°32' W 006°17'0 0.0
2018-Nov-05 12:08N 36°32' W 006°18'0 0.0
2018-Nov-05 11:47N 36°32' W 006°18'0 0.0
2018-Nov-05 11:29N 36°32' W 006°17'0 0.0
2018-Nov-05 11:02N 36°32' W 006°18'0 0.1
2018-Nov-05 10:57N 36°32' W 006°18'1 1.3
2018-Nov-05 10:24N 36°32' W 006°17'2 5.0
2018-Nov-05 10:03N 36°33' W 006°18'0 6.0
2018-Nov-05 10:00N 36°34' W 006°19'3 5.3
2018-Nov-05 09:30N 36°33' W 006°22'  
2018-Nov-02 11:05N 37°14' W 000°49'9 4.0
2018-Nov-02 08:51N 37°23' W 000°51'1 2.1
2018-Nov-02 08:14N 37°24' W 000°52'2 4.9
2018-Nov-02 07:54N 37°26' W 000°51'2 6.0
2018-Nov-02 07:30N 37°26' W 000°48'3 6.5
2018-Nov-02 07:03N 37°27' W 000°44'0 6.4
2018-Nov-02 07:00N 37°27' W 000°44'9 7.3
2018-Nov-02 05:45N 37°29' W 000°33'2 9.4
2018-Nov-02 05:30N 37°30' W 000°30'4 9.5
2018-Nov-02 05:02N 37°32' W 000°25'0 9.4
2018-Nov-02 05:00N 37°32' W 000°25'6 9.3
2018-Nov-02 04:21N 37°34' W 000°18'115 7.6
2018-Nov-01 13:18N 38°50' E 001°33'2 7.3
2018-Nov-01 13:03N 38°51' E 001°32'0 5.7
2018-Nov-01 12:59N 38°51' E 001°31'2 3.9
2018-Nov-01 12:30N 38°53' E 001°30'2 3.7
2018-Nov-01 12:02N 38°54' E 001°28'0 5.5
2018-Nov-01 12:01N 38°54' E 001°28'1 2.3
2018-Nov-01 11:28N 38°55' E 001°26'0 0.0
2018-Nov-01 11:01N 38°55' E 001°26'0 0.0
2018-Nov-01 10:59N 38°55' E 001°26'0 0.0
2018-Nov-01 10:29N 38°55' E 001°26'0 0.0
2018-Nov-01 10:01N 38°55' E 001°26'0 0.0
2018-Nov-01 09:55N 38°55' E 001°26'0 0.0
2018-Nov-01 09:29N 38°55' E 001°26'0 0.0
2018-Nov-01 09:02N 38°55' E 001°26'0 0.1
2018-Nov-01 08:59N 38°55' E 001°26'0 0.0
2018-Nov-01 08:29N 38°55' E 001°26'0 0.0
2018-Nov-01 08:02N 38°55' E 001°26'0 0.0
2018-Nov-01 07:59N 38°55' E 001°26'0 0.0
2018-Nov-01 07:29N 38°55' E 001°26'0 0.0
2018-Nov-01 07:02N 38°55' E 001°26'0 0.0
2018-Nov-01 06:59N 38°55' E 001°26'0 0.1
2018-Nov-01 06:27N 38°55' E 001°27'1 3.2
2018-Nov-01 06:04N 38°54' E 001°28'0 6.1
2018-Nov-01 06:00N 38°54' E 001°28'4 7.1
2018-Nov-01 05:30N 38°55' E 001°33'3 6.7
2018-Nov-01 05:02N 38°56' E 001°36'1 7.5
2018-Nov-01 04:56N 38°56' E 001°37'  

Dump ship's entire track history